Time;durP1;ratioP1;P1;durP2;ratioP2;P2;SDS_P1;SDS_P2;PMS_P1;PMS_P2;Temp;Humidity;BMP_temperature;BMP_pressure;BME280_temperature;BME280_humidity;BME280_pressure;Samples;Min_cycle;Max_cycle;Signal;HPM_P1;HPM_P2
2023/03/17 00:00:58;;;;;;;;;;;;;;;;;;5011784;28;20446;-51
2023/03/17 00:03:24;;;;;;;;;;;;;;;;;;5011919;28;20036;-48
2023/03/17 00:05:50;;;;;;;;;;;;;;;;;;5022932;28;20050;-50
2023/03/17 00:08:16;;;;;;;;;;;;;;;;;;5031033;28;19999;-50
2023/03/17 00:10:41;;;;;;;;;;;;;;;;;;5035312;28;19918;-50
2023/03/17 00:13:06;;;;;;;;;;;;;;;;;;5034701;28;20292;-46
2023/03/17 00:15:32;;;;;;;;;;;;;;;;;;5034992;28;20377;-46
2023/03/17 00:17:57;;;;;;;;;;;;;;;;;;5035019;28;20349;-48
2023/03/17 00:20:23;;;;;;;;;;;;;;;;;;5035105;28;19920;-50
2023/03/17 00:22:48;;;;;;;;;;;;;;;;;;5034309;28;20023;-49
2023/03/17 00:25:14;;;;;;;;;;;;;;;;;;5033503;28;19909;-48
2023/03/17 00:27:39;;;;;;;;;;;;;;;;;;5034655;28;19909;-51
2023/03/17 00:30:06;;;;;;;;;;;;;;;;;;5034622;28;19956;-50
2023/03/17 00:32:31;;;;;;;;;;;;;;;;;;5034181;28;20004;-49
2023/03/17 00:34:57;;;;;;;;;;;;;;;;;;5034492;28;20444;-49
2023/03/17 00:37:23;;;;;;;;;;;;;;;;;;5034443;28;19957;-46
2023/03/17 00:39:48;;;;;;;;;;;;;;;;;;5034375;28;19921;-46
2023/03/17 00:42:14;;;;;;;;;;;;;;;;;;5034589;28;19909;-47
2023/03/17 00:44:40;;;;;;;;;;;;;;;;;;5030681;28;20012;-48
2023/03/17 00:47:06;;;;;;;;;;;;;;;;;;5033849;28;20012;-45
2023/03/17 00:49:31;;;;;;;;;;;;;;;;;;5033763;28;20007;-49
2023/03/17 00:51:57;;;;;;;;;;;;;;;;;;5034522;28;19913;-49
2023/03/17 00:54:22;;;;;;;;;;;;;;;;;;5024074;28;20468;-47
2023/03/17 00:56:48;;;;;;;;;;;;;;;;;;5017246;28;19940;-47
2023/03/17 00:59:14;;;;;;;;;;;;;;;;;;5017015;28;19945;-48
2023/03/17 01:01:40;;;;;;;;;;;;;;;;;;5014289;28;20278;-48
2023/03/17 01:04:06;;;;;;;;;;;;;;;;;;5027223;28;20336;-49
2023/03/17 01:06:31;;;;;;;;;;;;;;;;;;5033809;28;20000;-49
2023/03/17 01:08:56;;;;;;;;;;;;;;;;;;5028720;28;19938;-47
2023/03/17 01:11:22;;;;;;;;;;;;;;;;;;5030912;28;19921;-48
2023/03/17 01:13:48;;;;;;;;;;;;;;;;;;5030160;28;20314;-48
2023/03/17 01:16:14;;;;;;;;;;;;;;;;;;5030519;28;19954;-46
2023/03/17 01:18:39;;;;;;;;;;;;;;;;;;5033802;28;19916;-47
2023/03/17 01:21:05;;;;;;;;;;;;;;;;;;5033228;28;19909;-49
2023/03/17 01:23:31;;;;;;;;;;;;;;;;;;5032881;28;19924;-48
2023/03/17 01:25:56;;;;;;;;;;;;;;;;;;5032368;28;19967;-47
2023/03/17 01:28:22;;;;;;;;;;;;;;;;;;5033946;28;19909;-49
2023/03/17 01:30:48;;;;;;;;;;;;;;;;;;5056931;22;19954;-48
2023/03/17 01:33:13;;;;;;;;;;;;;;;;;;5093563;28;19916;-45
2023/03/17 01:35:38;;;;;;;;;;;;;;;;;;5090638;28;19912;-47
2023/03/17 01:38:04;;;;;;;;;;;;;;;;;;5093630;28;19908;-48
2023/03/17 01:40:30;;;;;;;;;;;;;;;;;;5091788;28;19912;-49
2023/03/17 01:42:56;;;;;;;;;;;;;;;;;;5082447;28;19913;-49
2023/03/17 01:45:22;;;;;;;;;;;;;;;;;;5074031;28;20284;-51
2023/03/17 01:47:47;;;;;;;;;;;;;;;;;;5085469;28;19923;-46
2023/03/17 01:50:13;;;;;;;;;;;;;;;;;;5091761;28;19916;-48
2023/03/17 01:52:38;;;;;;;;;;;;;;;;;;5082596;28;19965;-49
2023/03/17 01:55:03;;;;;;;;;;;;;;;;;;5091579;28;19908;-48
2023/03/17 01:57:30;;;;;;;;;;;;;;;;;;5057773;28;19912;-47
2023/03/17 01:59:56;;;;;;;;;;;;;;;;;;5053207;28;19909;-49
2023/03/17 02:02:22;;;;;;;;;;;;;;;;;;5053570;28;20320;-48
2023/03/17 02:04:48;;;;;;;;;;;;;;;;;;5053283;28;20391;-48
2023/03/17 02:07:13;;;;;;;;;;;;;;;;;;5053664;28;19913;-48
2023/03/17 02:09:39;;;;;;;;;;;;;;;;;;5053069;28;19917;-48
2023/03/17 02:12:04;;;;;;;;;;;;;;;;;;5053569;28;20289;-45
2023/03/17 02:14:29;;;;;;;;;;;;;;;;;;5072478;28;20265;-48
2023/03/17 02:16:55;;;;;;;;;;;;;;;;;;5071665;28;19913;-45
2023/03/17 02:19:20;;;;;;;;;;;;;;;;;;5072406;28;19909;-48
2023/03/17 02:21:46;;;;;;;;;;;;;;;;;;5061673;28;19909;-48
2023/03/17 02:24:11;;;;;;;;;;;;;;;;;;5059830;28;19912;-47
2023/03/17 02:26:37;;;;;;;;;;;;;;;;;;5072902;28;19908;-45
2023/03/17 02:29:03;;;;;;;;;;;;;;;;;;5072788;28;19908;-45
2023/03/17 02:31:29;;;;;;;;;;;;;;;;;;5071150;28;19931;-45
2023/03/17 02:33:55;;;;;;;;;;;;;;;;;;5067799;28;20361;-46
2023/03/17 02:36:20;;;;;;;;;;;;;;;;;;5055575;28;19919;-47
2023/03/17 02:38:46;;;;;;;;;;;;;;;;;;5070221;28;19908;-47
2023/03/17 02:41:11;;;;;;;;;;;;;;;;;;5063476;28;19912;-47
2023/03/17 02:43:37;;;;;;;;;;;;;;;;;;5063545;28;19954;-49
2023/03/17 02:46:02;;;;;;;;;;;;;;;;;;5067352;28;19962;-49
2023/03/17 02:48:28;;;;;;;;;;;;;;;;;;5065136;28;20022;-49
2023/03/17 02:50:56;;;;;;;;;;;;;;;;;;5071520;28;20210;-47
2023/03/17 02:53:21;;;;;;;;;;;;;;;;;;5076723;28;20357;-45
2023/03/17 02:55:47;;;;;;;;;;;;;;;;;;5070924;28;19912;-45
2023/03/17 02:58:12;;;;;;;;;;;;;;;;;;5072459;28;20409;-47
2023/03/17 03:00:39;;;;;;;;;;;;;;;;;;5052087;28;19995;-46
2023/03/17 03:03:05;;;;;;;;;;;;;;;;;;5060430;28;20326;-46
2023/03/17 03:05:30;;;;;;;;;;;;;;;;;;5067379;28;20357;-46
2023/03/17 03:07:56;;;;;;;;;;;;;;;;;;5061520;28;19913;-45
2023/03/17 03:10:21;;;;;;;;;;;;;;;;;;5083067;28;19920;-44
2023/03/17 03:12:47;;;;;;;;;;;;;;;;;;5091858;28;19912;-46
2023/03/17 03:15:13;;;;;;;;;;;;;;;;;;5091826;28;19909;-46
2023/03/17 03:17:38;;;;;;;;;;;;;;;;;;5091983;28;19916;-46
2023/03/17 03:20:04;;;;;;;;;;;;;;;;;;5086776;28;19920;-47
2023/03/17 03:22:29;;;;;;;;;;;;;;;;;;5075638;28;19992;-44
2023/03/17 03:24:55;;;;;;;;;;;;;;;;;;5092003;28;20368;-44
2023/03/17 03:27:20;;;;;;;;;;;;;;;;;;5091274;28;19919;-52
2023/03/17 03:29:45;;;;;;;;;;;;;;;;;;5075024;28;19923;-45
2023/03/17 03:32:11;;;;;;;;;;;;;;;;;;5084928;28;19927;-48
2023/03/17 03:34:36;;;;;;;;;;;;;;;;;;5083047;28;19909;-49
2023/03/17 03:37:02;;;;;;;;;;;;;;;;;;5083619;28;19908;-44
2023/03/17 03:39:27;;;;;;;;;;;;;;;;;;5061513;28;19916;-43
2023/03/17 03:41:56;;;;;;;;;;;;;;;;;;5071647;28;19908;-47
2023/03/17 03:44:21;;;;;;;;;;;;;;;;;;5075077;28;19915;-42
2023/03/17 03:46:46;;;;;;;;;;;;;;;;;;5074774;28;19909;-49
2023/03/17 03:49:12;;;;;;;;;;;;;;;;;;5060693;28;19913;-46
2023/03/17 03:51:37;;;;;;;;;;;;;;;;;;5069095;28;20261;-48
2023/03/17 03:54:03;;;;;;;;;;;;;;;;;;5075686;28;20386;-45
2023/03/17 03:56:28;;;;;;;;;;;;;;;;;;5074983;28;19919;-46
2023/03/17 03:58:55;;;;;;;;;;;;;;;;;;5073799;28;20034;-48
2023/03/17 04:01:20;;;;;;;;;;;;;;;;;;5055517;28;20301;-44
2023/03/17 04:03:46;;;;;;;;;;;;;;;;;;5055854;28;19916;-44
2023/03/17 04:06:11;;;;;;;;;;;;;;;;;;5055346;28;19916;-48
2023/03/17 04:08:37;;;;;;;;;;;;;;;;;;5055770;28;19909;-47
2023/03/17 04:11:02;;;;;;;;;;;;;;;;;;5072786;28;20450;-45
2023/03/17 04:13:27;;;;;;;;;;;;;;;;;;5056498;28;19944;-44
2023/03/17 04:15:53;;;;;;;;;;;;;;;;;;5052243;28;19952;-47
2023/03/17 04:18:18;;;;;;;;;;;;;;;;;;5055414;28;19963;-45
2023/03/17 04:20:44;;;;;;;;;;;;;;;;;;5056516;28;20377;-47
2023/03/17 04:23:09;;;;;;;;;;;;;;;;;;5075270;28;19908;-44
2023/03/17 04:25:35;;;;;;;;;;;;;;;;;;5075116;28;19954;-45
2023/03/17 04:28:21;;;;;;;;;;;;;;;;;;5071768;28;19912;-45
2023/03/17 04:30:46;;;;;;;;;;;;;;;;;;5072326;28;19921;-47
2023/03/17 04:33:12;;;;;;;;;;;;;;;;;;5072737;28;19974;-47
2023/03/17 04:35:38;;;;;;;;;;;;;;;;;;5072524;28;19908;-47
2023/03/17 04:38:03;;;;;;;;;;;;;;;;;;5055375;28;20361;-46
2023/03/17 04:40:28;;;;;;;;;;;;;;;;;;5066532;28;19912;-45
2023/03/17 04:42:54;;;;;;;;;;;;;;;;;;5071622;28;20019;-48
2023/03/17 04:45:19;;;;;;;;;;;;;;;;;;5067123;28;20312;-46
2023/03/17 04:47:45;;;;;;;;;;;;;;;;;;5053160;28;19920;-45
2023/03/17 04:50:10;;;;;;;;;;;;;;;;;;5053142;28;19970;-47
2023/03/17 04:52:36;;;;;;;;;;;;;;;;;;5066524;28;20360;-47
2023/03/17 04:55:02;;;;;;;;;;;;;;;;;;5062346;28;19930;-45
2023/03/17 04:57:27;;;;;;;;;;;;;;;;;;5070013;28;20369;-45
2023/03/17 04:59:52;;;;;;;;;;;;;;;;;;5073881;28;19908;-45
2023/03/17 05:02:18;;;;;;;;;;;;;;;;;;5073311;28;19913;-46
2023/03/17 05:04:44;;;;;;;;;;;;;;;;;;5054343;28;19909;-45
2023/03/17 05:07:09;;;;;;;;;;;;;;;;;;5056528;28;19912;-46
2023/03/17 05:09:35;;;;;;;;;;;;;;;;;;5062556;28;19909;-45
2023/03/17 05:12:00;;;;;;;;;;;;;;;;;;5074726;28;19920;-46
2023/03/17 05:14:25;;;;;;;;;;;;;;;;;;5074748;28;19909;-44
2023/03/17 05:16:51;;;;;;;;;;;;;;;;;;5074349;28;19916;-45
2023/03/17 05:19:17;;;;;;;;;;;;;;;;;;5060391;28;20252;-46
2023/03/17 05:21:42;;;;;;;;;;;;;;;;;;5054191;28;20312;-46
2023/03/17 05:24:08;;;;;;;;;;;;;;;;;;5054204;28;19916;-45
2023/03/17 05:26:33;;;;;;;;;;;;;;;;;;5053839;28;19915;-47
2023/03/17 05:28:59;;;;;;;;;;;;;;;;;;5054104;28;20027;-44
2023/03/17 05:31:24;;;;;;;;;;;;;;;;;;5062842;28;19925;-47
2023/03/17 05:33:50;;;;;;;;;;;;;;;;;;5053791;28;20284;-48
2023/03/17 05:36:15;;;;;;;;;;;;;;;;;;5066540;28;20003;-47
2023/03/17 05:38:41;;;;;;;;;;;;;;;;;;5073820;28;20353;-45
2023/03/17 05:41:06;;;;;;;;;;;;;;;;;;5062998;28;19924;-48
2023/03/17 05:43:31;;;;;;;;;;;;;;;;;;5053833;28;19909;-44
2023/03/17 05:45:57;;;;;;;;;;;;;;;;;;5053501;28;19909;-45
2023/03/17 05:48:22;;;;;;;;;;;;;;;;;;5053488;28;19954;-47
2023/03/17 05:50:48;;;;;;;;;;;;;;;;;;5054331;28;19924;-44
2023/03/17 05:53:14;;;;;;;;;;;;;;;;;;5054272;28;19916;-45
2023/03/17 05:55:40;;;;;;;;;;;;;;;;;;5073271;28;19912;-45
2023/03/17 05:58:06;;;;;;;;;;;;;;;;;;5073457;28;19916;-48
2023/03/17 06:00:31;;;;;;;;;;;;;;;;;;5073609;28;20466;-47
2023/03/17 06:02:57;;;;;;;;;;;;;;;;;;5054432;28;19936;-46
2023/03/17 06:05:22;;;;;;;;;;;;;;;;;;5053314;28;19909;-45
2023/03/17 06:07:48;;;;;;;;;;;;;;;;;;5052390;28;19909;-46
2023/03/17 06:10:13;;;;;;;;;;;;;;;;;;5053422;28;19924;-45
2023/03/17 06:12:39;;;;;;;;;;;;;;;;;;5060038;28;19917;-44
2023/03/17 06:15:04;;;;;;;;;;;;;;;;;;5066781;28;19912;-46
2023/03/17 06:17:30;;;;;;;;;;;;;;;;;;5072923;28;19908;-46
2023/03/17 06:19:55;;;;;;;;;;;;;;;;;;5071070;28;19912;-46
2023/03/17 06:22:21;;;;;;;;;;;;;;;;;;5059621;28;19919;-47
2023/03/17 06:24:46;;;;;;;;;;;;;;;;;;5071874;28;20007;-47
2023/03/17 06:27:13;;;;;;;;;;;;;;;;;;5072741;28;19913;-46
2023/03/17 06:29:38;;;;;;;;;;;;;;;;;;5071923;28;19909;-44
2023/03/17 06:32:04;;;;;;;;;;;;;;;;;;5071213;28;19974;-45
2023/03/17 06:34:30;;;;;;;;;;;;;;;;;;5052790;28;19959;-48
2023/03/17 06:36:55;;;;;;;;;;;;;;;;;;5063343;28;19912;-47
2023/03/17 06:39:21;;;;;;;;;;;;;;;;;;5072660;28;19948;-45
2023/03/17 06:41:46;;;;;;;;;;;;;;;;;;5056379;28;19916;-45
2023/03/17 06:44:12;;;;;;;;;;;;;;;;;;5067605;28;20007;-44
2023/03/17 06:46:37;;;;;;;;;;;;;;;;;;5061500;28;19935;-45
2023/03/17 06:49:02;;;;;;;;;;;;;;;;;;5052775;28;19934;-44
2023/03/17 06:51:28;;;;;;;;;;;;;;;;;;5053639;28;20288;-46
2023/03/17 06:53:53;;;;;;;;;;;;;;;;;;5061551;28;20418;-44
2023/03/17 06:56:19;;;;;;;;;;;;;;;;;;5061632;28;20047;-45
2023/03/17 06:58:45;;;;;;;;;;;;;;;;;;5055663;28;20003;-47
2023/03/17 07:01:11;;;;;;;;;;;;;;;;;;5064118;28;19916;-44
2023/03/17 07:03:36;;;;;;;;;;;;;;;;;;5057611;28;19917;-44
2023/03/17 07:06:02;;;;;;;;;;;;;;;;;;5052202;28;19909;-46
2023/03/17 07:08:29;;;;;;;;;;;;;;;;;;5052307;28;19915;-44
2023/03/17 07:10:56;;;;;;;;;;;;;;;;;;5052927;28;20042;-44
2023/03/17 07:13:21;;;;;;;;;;;;;;;;;;5072623;28;19916;-45
2023/03/17 07:15:47;;;;;;;;;;;;;;;;;;5064891;28;20285;-45
2023/03/17 07:18:12;;;;;;;;;;;;;;;;;;5067395;28;20365;-46
2023/03/17 07:20:37;;;;;;;;;;;;;;;;;;5072452;28;19908;-44
2023/03/17 07:23:03;;;;;;;;;;;;;;;;;;5076446;28;19955;-44
2023/03/17 07:25:28;;;;;;;;;;;;;;;;;;5063504;28;20023;-44
2023/03/17 07:27:54;;;;;;;;;;;;;;;;;;5056351;28;20003;-44
2023/03/17 07:30:20;;;;;;;;;;;;;;;;;;5068584;28;19916;-45
2023/03/17 07:32:45;;;;;;;;;;;;;;;;;;5056248;28;19923;-45
2023/03/17 07:35:11;;;;;;;;;;;;;;;;;;5057017;28;19920;-46
2023/03/17 07:37:36;;;;;;;;;;;;;;;;;;5075897;28;19916;-46
2023/03/17 07:40:01;;;;;;;;;;;;;;;;;;5076154;28;20227;-47
2023/03/17 07:42:27;;;;;;;;;;;;;;;;;;5073165;28;20332;-48
2023/03/17 07:44:53;;;;;;;;;;;;;;;;;;5075850;28;19927;-45
2023/03/17 07:47:18;;;;;;;;;;;;;;;;;;5068672;28;19920;-44
2023/03/17 07:49:44;;;;;;;;;;;;;;;;;;5055861;28;19999;-46
2023/03/17 07:52:09;;;;;;;;;;;;;;;;;;5056462;28;20012;-47
2023/03/17 07:54:35;;;;;;;;;;;;;;;;;;5075601;28;19915;-45
2023/03/17 07:57:01;;;;;;;;;;;;;;;;;;5059108;28;19948;-46
2023/03/17 07:59:26;;;;;;;;;;;;;;;;;;5055917;28;19959;-46
2023/03/17 08:01:52;;;;;;;;;;;;;;;;;;5069234;28;19916;-47
2023/03/17 08:04:17;;;;;;;;;;;;;;;;;;5074888;28;19908;-45
2023/03/17 08:06:43;;;;;;;;;;;;;;;;;;5056594;28;19909;-48
2023/03/17 08:09:08;;;;;;;;;;;;;;;;;;5056307;28;20000;-47
2023/03/17 08:11:33;;;;;;;;;;;;;;;;;;5075204;28;19921;-46
2023/03/17 08:14:00;;;;;;;;;;;;;;;;;;5075564;28;19959;-47
2023/03/17 08:16:26;;;;;;;;;;;;;;;;;;5060118;28;20514;-44
2023/03/17 08:18:52;;;;;;;;;;;;;;;;;;5055402;28;19978;-44
2023/03/17 08:21:17;;;;;;;;;;;;;;;;;;5059806;28;20355;-46
2023/03/17 08:23:43;;;;;;;;;;;;;;;;;;5055577;28;19935;-47
2023/03/17 08:26:09;;;;;;;;;;;;;;;;;;5055242;28;19966;-44
2023/03/17 08:28:34;;;;;;;;;;;;;;;;;;5058160;28;19920;-45
2023/03/17 08:31:00;;;;;;;;;;;;;;;;;;5056717;28;19921;-43
2023/03/17 08:33:27;;;;;;;;;;;;;;;;;;5075412;28;20387;-47
2023/03/17 08:35:52;;;;;;;;;;;;;;;;;;5073966;28;20377;-45
2023/03/17 08:38:18;;;;;;;;;;;;;;;;;;5073643;28;19995;-47
2023/03/17 08:40:43;;;;;;;;;;;;;;;;;;5075024;28;19914;-48
2023/03/17 08:43:09;;;;;;;;;;;;;;;;;;5072691;28;19917;-44
2023/03/17 08:45:35;;;;;;;;;;;;;;;;;;5054830;28;19947;-43
2023/03/17 08:48:00;;;;;;;;;;;;;;;;;;5071883;28;19912;-43
2023/03/17 08:50:26;;;;;;;;;;;;;;;;;;5074737;28;19916;-44
2023/03/17 08:52:51;;;;;;;;;;;;;;;;;;5074759;28;19909;-47
2023/03/17 08:55:17;;;;;;;;;;;;;;;;;;5074680;28;20376;-44
2023/03/17 08:57:43;;;;;;;;;;;;;;;;;;5062385;28;19917;-45
2023/03/17 09:00:09;;;;;;;;;;;;;;;;;;5055094;28;19909;-44
2023/03/17 09:02:35;;;;;;;;;;;;;;;;;;5067413;28;19909;-45
2023/03/17 09:05:01;;;;;;;;;;;;;;;;;;5060365;28;19923;-44
2023/03/17 09:07:26;;;;;;;;;;;;;;;;;;5067745;28;19955;-44
2023/03/17 09:09:52;;;;;;;;;;;;;;;;;;5056049;28;19964;-44
2023/03/17 09:12:17;;;;;;;;;;;;;;;;;;5070378;28;20187;-45
2023/03/17 09:14:43;;;;;;;;;;;;;;;;;;5073110;28;19944;-43
2023/03/17 09:17:08;;;;;;;;;;;;;;;;;;5069361;28;20045;-43
2023/03/17 09:19:34;;;;;;;;;;;;;;;;;;5073618;28;19915;-44
2023/03/17 09:22:01;;;;;;;;;;;;;;;;;;5074355;28;19912;-44
2023/03/17 09:24:27;;;;;;;;;;;;;;;;;;5073651;28;20008;-44
2023/03/17 09:26:52;;;;;;;;;;;;;;;;;;5072854;28;20007;-45
2023/03/17 09:29:18;;;;;;;;;;;;;;;;;;5059026;28;19913;-44
2023/03/17 09:31:43;;;;;;;;;;;;;;;;;;5058650;28;19986;-44
2023/03/17 09:34:09;;;;;;;;;;;;;;;;;;5054165;28;20431;-44
2023/03/17 09:36:34;;;;;;;;;;;;;;;;;;5068862;28;19934;-44
2023/03/17 09:38:59;;;;;;;;;;;;;;;;;;5064688;28;19923;-46
2023/03/17 09:41:25;;;;;;;;;;;;;;;;;;5066623;28;19920;-44
2023/03/17 09:43:51;;;;;;;;;;;;;;;;;;5071917;28;19913;-45
2023/03/17 09:46:16;;;;;;;;;;;;;;;;;;5072579;28;19912;-45
2023/03/17 09:48:42;;;;;;;;;;;;;;;;;;5070121;28;20284;-45
2023/03/17 09:51:07;;;;;;;;;;;;;;;;;;5062488;28;20298;-44
2023/03/17 09:53:33;;;;;;;;;;;;;;;;;;5073515;28;19954;-44
2023/03/17 09:55:59;;;;;;;;;;;;;;;;;;5071078;28;19923;-44
2023/03/17 09:58:25;;;;;;;;;;;;;;;;;;5073394;28;19908;-45
2023/03/17 10:00:50;;;;;;;;;;;;;;;;;;5068401;28;20010;-45
2023/03/17 10:03:16;;;;;;;;;;;;;;;;;;5073419;28;19948;-45
2023/03/17 10:05:41;;;;;;;;;;;;;;;;;;5071090;28;19913;-46
2023/03/17 10:08:07;;;;;;;;;;;;;;;;;;5073315;28;19954;-45
2023/03/17 10:10:32;;;;;;;;;;;;;;;;;;5069840;28;19966;-45
2023/03/17 10:12:58;;;;;;;;;;;;;;;;;;5073202;28;19909;-44
2023/03/17 10:15:23;;;;;;;;;;;;;;;;;;5065640;28;19940;-47
2023/03/17 10:17:50;;;;;;;;;;;;;;;;;;5062815;28;20330;-47
2023/03/17 10:20:16;;;;;;;;;;;;;;;;;;5069939;28;19916;-44
2023/03/17 10:22:41;;;;;;;;;;;;;;;;;;5055921;28;19919;-44
2023/03/17 10:25:08;;;;;;;;;;;;;;;;;;5073419;28;19940;-44
2023/03/17 10:27:33;;;;;;;;;;;;;;;;;;5071067;28;19915;-46
2023/03/17 10:29:59;;;;;;;;;;;;;;;;;;5050997;28;20023;-45
2023/03/17 10:32:24;;;;;;;;;;;;;;;;;;5064938;28;20003;-43
2023/03/17 10:34:49;;;;;;;;;;;;;;;;;;5072699;28;19930;-44
2023/03/17 10:37:15;;;;;;;;;;;;;;;;;;5064972;28;20265;-43
2023/03/17 10:39:40;;;;;;;;;;;;;;;;;;5072843;28;19913;-46
2023/03/17 10:42:06;;;;;;;;;;;;;;;;;;5071785;28;19985;-43
2023/03/17 10:44:31;;;;;;;;;;;;;;;;;;5055838;28;20387;-43
2023/03/17 10:46:57;;;;;;;;;;;;;;;;;;5069946;28;19966;-47
2023/03/17 10:49:24;;;;;;;;;;;;;;;;;;5070750;28;19909;-44
2023/03/17 10:51:49;;;;;;;;;;;;;;;;;;5066956;28;19927;-46
2023/03/17 10:54:16;;;;;;;;;;;;;;;;;;5058443;28;19913;-46
2023/03/17 10:56:42;;;;;;;;;;;;;;;;;;5053397;28;19913;-44
2023/03/17 10:59:07;;;;;;;;;;;;;;;;;;5052480;28;19916;-45
2023/03/17 11:01:32;;;;;;;;;;;;;;;;;;5054759;28;19916;-44
2023/03/17 11:04:01;;;;;;;;;;;;;;;;;;5052391;28;19908;-44
2023/03/17 11:06:26;;;;;;;;;;;;;;;;;;5068483;28;19920;-43
2023/03/17 11:08:55;;;;;;;;;;;;;;;;;;5073241;28;19912;-45
2023/03/17 11:11:20;;;;;;;;;;;;;;;;;;5071604;28;20299;-43
2023/03/17 11:13:46;;;;;;;;;;;;;;;;;;5072953;28;20361;-45
2023/03/17 11:16:11;;;;;;;;;;;;;;;;;;5060962;28;19921;-48
2023/03/17 11:18:37;;;;;;;;;;;;;;;;;;5067410;28;20300;-44
2023/03/17 11:21:02;;;;;;;;;;;;;;;;;;5065950;28;20361;-43
2023/03/17 11:23:28;;;;;;;;;;;;;;;;;;5054572;28;19936;-44
2023/03/17 11:25:54;;;;;;;;;;;;;;;;;;5070520;28;19916;-44
2023/03/17 11:28:19;;;;;;;;;;;;;;;;;;5065277;28;20422;-43
2023/03/17 11:30:46;;;;;;;;;;;;;;;;;;5072086;28;19924;-44
2023/03/17 11:33:11;;;;;;;;;;;;;;;;;;5071491;28;19908;-44
2023/03/17 11:35:37;;;;;;;;;;;;;;;;;;5051704;28;19932;-46
2023/03/17 11:38:03;;;;;;;;;;;;;;;;;;5055842;28;20009;-44
2023/03/17 11:40:28;;;;;;;;;;;;;;;;;;5072099;28;19999;-44
2023/03/17 11:42:54;;;;;;;;;;;;;;;;;;5071402;28;20408;-45
2023/03/17 11:45:19;;;;;;;;;;;;;;;;;;5056667;28;20347;-44
2023/03/17 11:47:45;;;;;;;;;;;;;;;;;;5067676;28;20426;-45
2023/03/17 11:50:11;;;;;;;;;;;;;;;;;;5063291;28;19920;-44
2023/03/17 11:52:36;;;;;;;;;;;;;;;;;;5057733;28;19919;-45
2023/03/17 11:55:03;;;;;;;;;;;;;;;;;;5071709;28;20059;-44
2023/03/17 11:57:28;;;;;;;;;;;;;;;;;;5056954;28;20376;-44
2023/03/17 11:59:54;;;;;;;;;;;;;;;;;;5051951;28;20454;-44
2023/03/17 12:02:20;;;;;;;;;;;;;;;;;;5055500;28;19924;-44
2023/03/17 12:04:45;;;;;;;;;;;;;;;;;;5054195;28;19909;-44
2023/03/17 12:07:11;;;;;;;;;;;;;;;;;;5071446;28;19912;-46
2023/03/17 12:09:36;;;;;;;;;;;;;;;;;;5075523;28;19908;-46
2023/03/17 12:12:01;;;;;;;;;;;;;;;;;;5074593;28;19974;-47
2023/03/17 12:14:27;;;;;;;;;;;;;;;;;;5075449;28;19962;-47
2023/03/17 12:16:53;;;;;;;;;;;;;;;;;;5072964;28;19913;-46
2023/03/17 12:19:18;;;;;;;;;;;;;;;;;;5075429;28;19966;-46
2023/03/17 12:21:44;;;;;;;;;;;;;;;;;;5069031;28;19916;-45
2023/03/17 12:24:10;;;;;;;;;;;;;;;;;;5063911;28;19971;-47
2023/03/17 12:26:36;;;;;;;;;;;;;;;;;;5055029;28;19962;-45
2023/03/17 12:29:01;;;;;;;;;;;;;;;;;;5067354;28;19908;-47
2023/03/17 12:31:26;;;;;;;;;;;;;;;;;;5068441;28;19981;-48
2023/03/17 12:33:52;;;;;;;;;;;;;;;;;;5063203;28;20262;-48
2023/03/17 12:36:17;;;;;;;;;;;;;;;;;;5053977;28;19916;-47
2023/03/17 12:38:43;;;;;;;;;;;;;;;;;;5054569;28;19999;-46
2023/03/17 12:41:08;;;;;;;;;;;;;;;;;;5065728;28;19908;-46
2023/03/17 12:43:34;;;;;;;;;;;;;;;;;;5056135;28;19916;-45
2023/03/17 12:46:00;;;;;;;;;;;;;;;;;;5071825;28;20050;-42
2023/03/17 12:48:25;;;;;;;;;;;;;;;;;;5073004;28;19915;-48
2023/03/17 12:50:50;;;;;;;;;;;;;;;;;;5054363;28;19917;-46
2023/03/17 12:53:16;;;;;;;;;;;;;;;;;;5054359;28;19909;-44
2023/03/17 12:55:42;;;;;;;;;;;;;;;;;;5073365;28;19917;-46
2023/03/17 12:58:09;;;;;;;;;;;;;;;;;;5065613;28;19919;-47
2023/03/17 13:00:35;;;;;;;;;;;;;;;;;;5071006;28;20027;-47
2023/03/17 13:03:00;;;;;;;;;;;;;;;;;;5074620;28;20400;-44
2023/03/17 13:05:25;;;;;;;;;;;;;;;;;;5074325;28;20003;-46
2023/03/17 13:07:51;;;;;;;;;;;;;;;;;;5074418;28;20307;-44
2023/03/17 13:10:17;;;;;;;;;;;;;;;;;;5074295;28;20372;-46
2023/03/17 13:12:43;;;;;;;;;;;;;;;;;;5074195;28;19908;-47
2023/03/17 13:15:09;;;;;;;;;;;;;;;;;;5073288;28;20015;-44
2023/03/17 13:17:34;;;;;;;;;;;;;;;;;;5073837;28;20478;-46
2023/03/17 13:20:00;;;;;;;;;;;;;;;;;;5074234;28;19912;-48
2023/03/17 13:22:25;;;;;;;;;;;;;;;;;;5074217;28;19999;-49
2023/03/17 13:24:50;;;;;;;;;;;;;;;;;;5060204;28;19968;-48
2023/03/17 13:27:16;;;;;;;;;;;;;;;;;;5053993;28;19909;-48
2023/03/17 13:29:41;;;;;;;;;;;;;;;;;;5054085;28;19909;-45
2023/03/17 13:32:07;;;;;;;;;;;;;;;;;;5054168;28;19928;-45
2023/03/17 13:34:33;;;;;;;;;;;;;;;;;;5054413;28;19913;-46
2023/03/17 13:36:58;;;;;;;;;;;;;;;;;;5053550;28;19915;-48
2023/03/17 13:39:24;;;;;;;;;;;;;;;;;;5067652;28;19928;-44
2023/03/17 13:41:49;;;;;;;;;;;;;;;;;;5053060;28;19921;-46
2023/03/17 13:44:15;;;;;;;;;;;;;;;;;;5069141;28;20323;-47
2023/03/17 13:46:40;;;;;;;;;;;;;;;;;;5062912;28;19960;-45
2023/03/17 13:49:06;;;;;;;;;;;;;;;;;;5073147;28;19913;-47
2023/03/17 13:51:32;;;;;;;;;;;;;;;;;;5060622;28;19974;-46
2023/03/17 13:53:58;;;;;;;;;;;;;;;;;;5063782;28;19916;-44
2023/03/17 13:56:23;;;;;;;;;;;;;;;;;;5071654;28;19912;-49
2023/03/17 13:58:49;;;;;;;;;;;;;;;;;;5060052;28;19958;-48
2023/03/17 14:01:14;;;;;;;;;;;;;;;;;;5051804;28;19916;-46
2023/03/17 14:03:40;;;;;;;;;;;;;;;;;;5066831;28;19942;-46
2023/03/17 14:06:05;;;;;;;;;;;;;;;;;;5052708;28;19966;-45
2023/03/17 14:08:31;;;;;;;;;;;;;;;;;;5053726;28;19951;-44
2023/03/17 14:10:56;;;;;;;;;;;;;;;;;;5062806;28;19923;-44
2023/03/17 14:13:21;;;;;;;;;;;;;;;;;;5071614;28;19913;-43
2023/03/17 14:15:47;;;;;;;;;;;;;;;;;;5071852;28;19963;-45
2023/03/17 14:18:12;;;;;;;;;;;;;;;;;;5070885;28;20006;-44
2023/03/17 14:20:38;;;;;;;;;;;;;;;;;;5052482;28;19912;-50
2023/03/17 14:23:03;;;;;;;;;;;;;;;;;;5053046;28;20285;-50
2023/03/17 14:25:29;;;;;;;;;;;;;;;;;;5059716;28;20350;-48
2023/03/17 14:27:55;;;;;;;;;;;;;;;;;;5053995;28;19999;-46
2023/03/17 14:30:21;;;;;;;;;;;;;;;;;;5078695;28;19931;-46
2023/03/17 14:32:46;;;;;;;;;;;;;;;;;;5059747;28;19929;-49
2023/03/17 14:35:12;;;;;;;;;;;;;;;;;;5062979;28;20348;-48
2023/03/17 14:37:38;;;;;;;;;;;;;;;;;;5054496;28;19913;-45
2023/03/17 14:40:04;;;;;;;;;;;;;;;;;;5053711;28;20295;-43
2023/03/17 14:42:29;;;;;;;;;;;;;;;;;;5057386;28;19913;-46
2023/03/17 14:44:55;;;;;;;;;;;;;;;;;;5064170;28;20283;-47
2023/03/17 14:47:20;;;;;;;;;;;;;;;;;;5070966;28;19962;-48
2023/03/17 14:49:45;;;;;;;;;;;;;;;;;;5063023;28;19908;-51
2023/03/17 14:52:11;;;;;;;;;;;;;;;;;;5070067;28;20020;-48
2023/03/17 14:54:36;;;;;;;;;;;;;;;;;;5057089;28;19981;-47
2023/03/17 14:57:02;;;;;;;;;;;;;;;;;;5065435;28;20327;-44
2023/03/17 14:59:27;;;;;;;;;;;;;;;;;;5051494;28;20415;-47
2023/03/17 15:01:53;;;;;;;;;;;;;;;;;;5052406;28;19951;-45
2023/03/17 15:04:19;;;;;;;;;;;;;;;;;;5052381;28;19940;-44
2023/03/17 15:06:44;;;;;;;;;;;;;;;;;;5051930;28;19944;-45
2023/03/17 15:09:10;;;;;;;;;;;;;;;;;;5052560;28;20432;-45
2023/03/17 15:11:35;;;;;;;;;;;;;;;;;;5066077;28;19920;-44
2023/03/17 15:14:00;;;;;;;;;;;;;;;;;;5072451;28;19912;-47
2023/03/17 15:16:26;;;;;;;;;;;;;;;;;;5072332;28;20261;-48
2023/03/17 15:18:51;;;;;;;;;;;;;;;;;;5072368;28;20360;-44
2023/03/17 15:21:17;;;;;;;;;;;;;;;;;;5069452;28;20010;-47
2023/03/17 15:23:42;;;;;;;;;;;;;;;;;;5056866;28;19913;-48
2023/03/17 15:26:08;;;;;;;;;;;;;;;;;;5063945;28;20009;-44
2023/03/17 15:28:34;;;;;;;;;;;;;;;;;;5071245;28;19938;-46
2023/03/17 15:31:00;;;;;;;;;;;;;;;;;;5065121;28;19925;-49
2023/03/17 15:33:26;;;;;;;;;;;;;;;;;;5071031;28;20327;-44
2023/03/17 15:35:51;;;;;;;;;;;;;;;;;;5071036;28;19936;-47
2023/03/17 15:38:17;;;;;;;;;;;;;;;;;;5071664;28;20491;-45
2023/03/17 15:40:42;;;;;;;;;;;;;;;;;;5076056;28;20391;-45
2023/03/17 15:43:07;;;;;;;;;;;;;;;;;;5074238;28;19919;-44
2023/03/17 15:45:33;;;;;;;;;;;;;;;;;;5070440;28;19913;-44
2023/03/17 15:47:58;;;;;;;;;;;;;;;;;;5073691;28;19912;-45
2023/03/17 15:50:24;;;;;;;;;;;;;;;;;;5074400;28;19920;-45
2023/03/17 15:52:52;;;;;;;;;;;;;;;;;;5073634;28;19912;-45
2023/03/17 15:55:17;;;;;;;;;;;;;;;;;;5058997;28;20029;-46
2023/03/17 15:57:43;;;;;;;;;;;;;;;;;;5059064;28;20000;-45
2023/03/17 16:00:09;;;;;;;;;;;;;;;;;;5072820;28;20106;-46
2023/03/17 16:02:34;;;;;;;;;;;;;;;;;;5068536;28;19924;-44
2023/03/17 16:05:01;;;;;;;;;;;;;;;;;;5067568;28;20031;-44
2023/03/17 16:07:26;;;;;;;;;;;;;;;;;;5075438;28;19919;-44
2023/03/17 16:09:51;;;;;;;;;;;;;;;;;;5075524;28;19909;-45
2023/03/17 16:12:17;;;;;;;;;;;;;;;;;;5075565;28;19927;-46
2023/03/17 16:14:42;;;;;;;;;;;;;;;;;;5074512;28;19909;-46
2023/03/17 16:17:08;;;;;;;;;;;;;;;;;;5075382;28;19913;-45
2023/03/17 16:19:33;;;;;;;;;;;;;;;;;;5075370;28;19908;-45
2023/03/17 16:21:59;;;;;;;;;;;;;;;;;;5075336;28;19917;-43
2023/03/17 16:24:25;;;;;;;;;;;;;;;;;;5061601;28;19909;-47
2023/03/17 16:26:50;;;;;;;;;;;;;;;;;;5055350;28;20400;-46
2023/03/17 16:29:16;;;;;;;;;;;;;;;;;;5055080;28;19999;-44
2023/03/17 16:31:41;;;;;;;;;;;;;;;;;;5054971;28;20011;-47
2023/03/17 16:34:06;;;;;;;;;;;;;;;;;;5061882;28;20008;-46